createdAt,value
2022-09-14T00:01:27.103Z,4.70
2022-09-14T00:04:29.768Z,5.63
2022-09-14T00:06:56.553Z,4.63
2022-09-14T00:09:24.964Z,5.43
2022-09-14T00:11:52.348Z,5.55
2022-09-14T00:14:19.931Z,5.55
2022-09-14T00:16:47.449Z,5.32
2022-09-14T00:19:28.875Z,5.25
2022-09-14T00:21:57.787Z,5.47
2022-09-14T00:24:26.276Z,5.63
2022-09-14T00:26:53.881Z,5.15
2022-09-14T00:29:20.826Z,5.50
2022-09-14T00:31:48.006Z,4.85
2022-09-14T00:34:16.991Z,5.53
2022-09-14T00:36:47.382Z,5.25
2022-09-14T00:39:14.930Z,6.00
2022-09-14T00:41:46.827Z,5.20
2022-09-14T00:44:18.747Z,6.00
2022-09-14T00:46:51.223Z,5.60
2022-09-14T00:49:23.327Z,4.88
2022-09-14T00:51:59.176Z,5.75
2022-09-14T00:54:26.710Z,6.32
2022-09-14T00:56:54.750Z,5.90
2022-09-14T00:59:26.780Z,6.50
2022-09-14T01:01:54.128Z,5.78
2022-09-14T01:04:22.155Z,6.00
2022-09-14T01:07:09.184Z,5.90
2022-09-14T01:09:43.525Z,6.10
2022-09-14T01:12:29.390Z,5.70
2022-09-14T01:15:08.490Z,6.03
2022-09-14T01:17:44.098Z,7.13
2022-09-14T01:20:19.773Z,6.55
2022-09-14T01:22:58.835Z,5.72
2022-09-14T01:25:59.069Z,6.13
2022-09-14T01:28:47.270Z,6.03
2022-09-14T01:31:21.408Z,6.55
2022-09-14T01:34:08.497Z,6.03
2022-09-14T01:36:38.681Z,4.90
2022-09-14T01:39:07.562Z,6.32
2022-09-14T01:41:35.338Z,6.25
2022-09-14T01:44:27.352Z,5.40
2022-09-14T01:46:57.320Z,5.82
2022-09-14T01:49:27.540Z,6.15
2022-09-14T01:52:04.307Z,6.03
2022-09-14T01:54:43.442Z,5.55
2022-09-14T01:57:29.908Z,6.13
2022-09-14T02:00:01.757Z,6.55
2022-09-14T02:02:38.414Z,6.03
2022-09-14T02:05:19.752Z,6.60
2022-09-14T02:07:46.955Z,5.60
2022-09-14T02:10:16.428Z,6.28
2022-09-14T02:12:45.035Z,6.50
2022-09-14T02:15:14.544Z,6.07
2022-09-14T02:17:41.865Z,6.30
2022-09-14T02:20:29.177Z,5.72
2022-09-14T02:22:56.234Z,6.50
2022-09-14T02:25:23.363Z,5.65
2022-09-14T02:27:50.452Z,6.53
2022-09-14T02:30:55.242Z,6.95
2022-09-14T02:33:33.916Z,5.63
2022-09-14T02:36:08.001Z,7.15
2022-09-14T02:38:45.575Z,5.97
2022-09-14T02:41:22.842Z,5.22
2022-09-14T02:44:15.097Z,6.53
2022-09-14T02:47:07.698Z,5.88
2022-09-14T02:50:12.864Z,7.43
2022-09-14T02:52:48.630Z,7.47
2022-09-14T02:55:21.607Z,6.78
2022-09-14T02:58:08.391Z,7.65
2022-09-14T03:00:46.554Z,6.60
2022-09-14T03:03:18.658Z,7.38
2022-09-14T03:05:45.995Z,7.13
2022-09-14T03:08:13.131Z,7.00
2022-09-14T03:10:43.786Z,7.28
2022-09-14T03:13:11.739Z,7.82
2022-09-14T03:15:38.863Z,6.72
2022-09-14T03:18:09.983Z,6.60
2022-09-14T03:20:39.467Z,7.38
2022-09-14T03:23:07.259Z,7.63
2022-09-14T03:25:41.413Z,6.90
2022-09-14T03:28:09.421Z,6.65
2022-09-14T03:30:36.708Z,6.72
2022-09-14T03:33:04.240Z,7.45
2022-09-14T03:35:31.919Z,7.38
2022-09-14T03:37:59.798Z,8.18
2022-09-14T03:40:27.472Z,7.55
2022-09-14T03:42:54.583Z,8.45
2022-09-14T03:45:22.069Z,7.82
2022-09-14T03:47:49.539Z,7.30
2022-09-14T03:50:19.289Z,6.55
2022-09-14T03:52:46.416Z,5.82
2022-09-14T03:55:13.521Z,6.00
2022-09-14T03:57:40.367Z,5.75
2022-09-14T04:00:08.537Z,5.40
2022-09-14T04:02:35.693Z,6.72
2022-09-14T04:05:02.605Z,6.35
2022-09-14T04:07:36.835Z,6.43
2022-09-14T04:10:05.668Z,7.32
2022-09-14T04:12:39.696Z,7.20
2022-09-14T04:15:08.026Z,7.70
2022-09-14T04:17:35.098Z,7.30
2022-09-14T04:20:02.026Z,7.80
2022-09-14T04:22:34.676Z,7.93
2022-09-14T04:25:01.549Z,8.20
2022-09-14T04:27:29.727Z,8.25
2022-09-14T04:29:56.791Z,8.25
2022-09-14T04:32:23.601Z,8.90
2022-09-14T04:34:50.649Z,7.95
2022-09-14T04:37:17.439Z,8.55
2022-09-14T04:39:44.477Z,7.00
2022-09-14T04:42:11.349Z,9.35
2022-09-14T04:44:38.132Z,8.30
2022-09-14T04:47:05.400Z,10.13
2022-09-14T04:49:32.229Z,10.82
2022-09-14T04:51:59.026Z,11.85
2022-09-14T04:54:25.848Z,13.45
2022-09-14T04:56:52.716Z,13.68
2022-09-14T04:59:19.500Z,11.93
2022-09-14T05:01:47.980Z,11.00
2022-09-14T05:04:15.111Z,11.88
2022-09-14T05:06:43.256Z,10.23
2022-09-14T05:09:18.597Z,10.98
2022-09-14T05:11:46.023Z,12.05
2022-09-14T05:14:14.046Z,12.50
2022-09-14T05:16:42.932Z,11.57
2022-09-14T05:19:13.926Z,12.27
2022-09-14T05:21:41.076Z,13.32
2022-09-14T05:24:12.993Z,12.20
2022-09-14T05:26:39.881Z,12.65
2022-09-14T05:29:06.984Z,12.55
2022-09-14T05:31:34.102Z,12.57
2022-09-14T05:34:01.110Z,15.35
2022-09-14T05:36:27.876Z,15.77
2022-09-14T05:38:54.839Z,14.75
2022-09-14T05:41:21.681Z,15.45
2022-09-14T05:43:48.603Z,14.57
2022-09-14T05:46:17.655Z,14.98
2022-09-14T05:48:44.589Z,13.43
2022-09-14T05:51:17.283Z,14.00
2022-09-14T05:53:51.948Z,12.20
2022-09-14T05:56:19.825Z,12.57
2022-09-14T05:58:47.174Z,15.05
2022-09-14T06:01:18.501Z,13.90
2022-09-14T06:03:46.775Z,16.15
2022-09-14T06:06:15.580Z,15.13
2022-09-14T06:08:43.087Z,13.60
2022-09-14T06:11:16.091Z,13.13
2022-09-14T06:13:43.560Z,12.45
2022-09-14T06:16:14.353Z,11.40
2022-09-14T06:18:42.498Z,11.50
2022-09-14T06:21:10.831Z,10.85
2022-09-14T06:23:38.549Z,12.77
2022-09-14T06:26:06.230Z,15.05
2022-09-14T06:28:34.362Z,12.18
2022-09-14T06:31:04.370Z,11.77
2022-09-14T06:33:32.054Z,14.43
2022-09-14T06:36:01.407Z,13.60
2022-09-14T06:38:29.153Z,13.60
2022-09-14T06:40:57.987Z,13.68
2022-09-14T06:43:26.152Z,12.45
2022-09-14T06:46:06.376Z,12.38
2022-09-14T06:49:04.639Z,12.88
2022-09-14T06:51:34.714Z,12.18
2022-09-14T06:54:02.437Z,12.07
2022-09-14T06:56:32.744Z,10.88
2022-09-14T06:59:00.002Z,9.73
2022-09-14T07:01:27.863Z,8.23
2022-09-14T07:03:54.695Z,8.40
2022-09-14T07:06:24.274Z,7.90
2022-09-14T07:08:52.457Z,10.90
2022-09-14T07:11:21.724Z,10.50
2022-09-14T07:13:48.624Z,11.35
2022-09-14T07:16:16.015Z,9.75
2022-09-14T07:18:43.150Z,13.35
2022-09-14T07:21:13.087Z,12.55
2022-09-14T07:23:42.255Z,13.00
2022-09-14T07:26:30.664Z,11.93
2022-09-14T07:29:03.761Z,12.98
2022-09-14T07:31:40.141Z,12.20
2022-09-14T07:34:07.254Z,11.05
2022-09-14T07:36:36.618Z,11.55
2022-09-14T07:39:06.956Z,9.48
2022-09-14T07:41:34.828Z,10.23
2022-09-14T07:44:04.131Z,9.93
2022-09-14T07:46:37.146Z,8.88
2022-09-14T07:49:05.072Z,9.73
2022-09-14T07:51:34.726Z,9.93
2022-09-14T07:54:01.796Z,9.82
2022-09-14T07:56:29.988Z,9.88
2022-09-14T07:59:11.973Z,10.57
2022-09-14T08:01:46.879Z,10.50
2022-09-14T08:04:14.187Z,11.15
2022-09-14T08:06:41.115Z,10.95
2022-09-14T08:09:08.944Z,11.20
2022-09-14T08:11:38.178Z,11.63
2022-09-14T08:14:14.277Z,11.45
2022-09-14T08:16:41.806Z,11.88
2022-09-14T08:19:14.154Z,12.07
2022-09-14T08:21:46.252Z,11.05
2022-09-14T08:24:16.041Z,9.70
2022-09-14T08:26:42.881Z,12.27
2022-09-14T08:29:09.744Z,11.30
2022-09-14T08:31:38.961Z,10.40
2022-09-14T08:34:06.946Z,10.93
2022-09-14T08:36:36.934Z,11.18
2022-09-14T08:39:11.459Z,10.60
2022-09-14T08:41:45.175Z,10.75
2022-09-14T08:44:11.949Z,8.57
2022-09-14T08:46:57.181Z,10.05
2022-09-14T08:49:43.017Z,9.57
2022-09-14T08:52:30.994Z,8.80
2022-09-14T08:55:01.565Z,7.93
2022-09-14T08:58:01.335Z,8.30
2022-09-14T09:01:09.631Z,7.70
2022-09-14T09:04:27.872Z,8.65
2022-09-14T09:07:21.261Z,7.78
2022-09-14T09:09:54.136Z,8.98
2022-09-14T09:12:33.267Z,8.40
2022-09-14T09:15:03.303Z,8.30
2022-09-14T09:17:43.587Z,8.65
2022-09-14T09:20:18.178Z,8.00
2022-09-14T09:22:52.908Z,6.93
2022-09-14T09:25:27.228Z,8.93
2022-09-14T09:28:02.893Z,8.10
2022-09-14T09:30:30.277Z,7.57
2022-09-14T09:32:57.801Z,7.07
2022-09-14T09:35:24.993Z,7.38
2022-09-14T09:37:51.817Z,6.18
2022-09-14T09:40:37.709Z,5.97
2022-09-14T09:43:09.065Z,6.20
2022-09-14T09:46:00.673Z,5.97
2022-09-14T09:48:47.182Z,4.65
2022-09-14T09:51:26.952Z,4.30
2022-09-14T09:54:03.325Z,2.90
2022-09-14T09:56:33.518Z,2.53
2022-09-14T09:59:00.366Z,2.30
2022-09-14T10:01:33.991Z,2.30
2022-09-14T10:04:17.380Z,2.10
2022-09-14T10:06:45.495Z,2.13
2022-09-14T10:09:23.432Z,2.53
2022-09-14T10:12:02.157Z,2.92
2022-09-14T10:14:32.118Z,2.67
2022-09-14T10:17:21.177Z,3.13
2022-09-14T10:19:49.875Z,2.92
2022-09-14T10:22:32.517Z,2.75
2022-09-14T10:25:20.859Z,3.80
2022-09-14T10:27:56.776Z,4.03
2022-09-14T10:30:34.096Z,4.35
2022-09-14T10:33:03.925Z,5.00
2022-09-14T10:36:05.381Z,4.45
2022-09-14T10:39:09.076Z,5.32
2022-09-14T10:42:13.246Z,5.22
2022-09-14T10:44:58.501Z,4.93
2022-09-14T10:47:44.085Z,4.60
2022-09-14T10:50:33.617Z,4.25
2022-09-14T10:53:31.450Z,5.10
2022-09-14T10:56:37.886Z,5.05
2022-09-14T10:59:28.217Z,5.30
2022-09-14T11:02:16.838Z,6.53
2022-09-14T11:05:20.277Z,4.70
2022-09-14T11:07:56.095Z,4.97
2022-09-14T11:10:43.948Z,4.82
2022-09-14T11:13:37.602Z,5.43
2022-09-14T11:16:32.878Z,4.93
2022-09-14T11:19:30.303Z,5.55
2022-09-14T11:22:30.918Z,5.22
2022-09-14T11:25:02.410Z,5.63
2022-09-14T11:27:49.171Z,5.47
2022-09-14T11:30:19.839Z,4.93
2022-09-14T11:33:07.953Z,5.15
2022-09-14T11:35:48.336Z,5.22
2022-09-14T11:38:26.133Z,4.35
2022-09-14T11:41:13.158Z,5.00
2022-09-14T11:43:51.060Z,4.50
2022-09-14T11:46:34.578Z,4.70
2022-09-14T11:49:19.669Z,5.18
2022-09-14T11:51:55.720Z,4.25
2022-09-14T11:54:24.248Z,4.70
2022-09-14T11:56:55.878Z,5.18
2022-09-14T11:59:44.065Z,4.40
2022-09-14T12:02:23.225Z,4.35
2022-09-14T12:05:05.655Z,4.25
2022-09-14T12:07:47.507Z,4.30
2022-09-14T12:10:14.571Z,4.10
2022-09-14T12:12:55.171Z,3.78
2022-09-14T12:15:28.902Z,3.05
2022-09-14T12:18:08.086Z,3.85
2022-09-14T12:20:38.407Z,3.17
2022-09-14T12:23:05.155Z,2.72
2022-09-14T12:25:32.212Z,2.50
2022-09-14T12:27:59.190Z,2.20
2022-09-14T12:30:41.476Z,2.20
2022-09-14T12:33:31.202Z,2.35
2022-09-14T12:36:11.263Z,2.50
2022-09-14T12:38:38.282Z,2.10
2022-09-14T12:41:11.362Z,2.17
2022-09-14T12:43:40.955Z,2.30
2022-09-14T12:46:20.092Z,2.35
2022-09-14T12:48:51.436Z,2.20
2022-09-14T12:51:36.722Z,2.38
2022-09-14T12:54:11.284Z,2.28
2022-09-14T12:56:52.953Z,2.03
2022-09-14T12:59:58.285Z,2.20
2022-09-14T13:02:50.512Z,2.08
2022-09-14T13:05:24.667Z,1.88
2022-09-14T13:07:53.399Z,2.40
2022-09-14T13:10:33.914Z,2.42
2022-09-14T13:13:02.650Z,2.72
2022-09-14T13:15:36.916Z,2.63
2022-09-14T13:18:12.846Z,2.92
2022-09-14T13:20:40.493Z,3.00
2022-09-14T13:23:21.141Z,3.25
2022-09-14T13:25:49.044Z,2.90
2022-09-14T13:28:21.590Z,3.42
2022-09-14T13:30:57.540Z,3.50
2022-09-14T13:33:24.669Z,3.88
2022-09-14T13:36:02.908Z,3.45
2022-09-14T13:38:36.587Z,3.67
2022-09-14T13:41:10.614Z,3.30
2022-09-14T13:43:37.742Z,3.38
2022-09-14T13:46:08.207Z,3.80
2022-09-14T13:48:40.363Z,3.50
2022-09-14T13:51:08.795Z,4.20
2022-09-14T13:53:49.571Z,3.88
2022-09-14T13:56:17.682Z,3.92
2022-09-14T13:58:45.186Z,4.82
2022-09-14T14:01:12.533Z,3.85
2022-09-14T14:03:50.148Z,4.30
2022-09-14T14:06:32.346Z,5.03
2022-09-14T14:09:06.832Z,4.13
2022-09-14T14:11:45.828Z,3.95
2022-09-14T14:14:19.907Z,4.40
2022-09-14T14:17:11.692Z,4.50
2022-09-14T14:19:40.526Z,4.72
2022-09-14T14:22:21.207Z,4.60
2022-09-14T14:25:12.427Z,4.30
2022-09-14T14:27:46.243Z,5.07
2022-09-14T14:30:13.424Z,4.40
2022-09-14T14:32:40.500Z,4.20
2022-09-14T14:35:20.052Z,4.18
2022-09-14T14:37:47.913Z,4.97
2022-09-14T14:40:16.439Z,4.95
2022-09-14T14:42:44.292Z,4.43
2022-09-14T14:45:18.667Z,4.22
2022-09-14T14:47:50.683Z,4.60
2022-09-14T14:50:22.055Z,4.50
2022-09-14T14:52:49.387Z,4.50
2022-09-14T14:55:16.210Z,5.03
2022-09-14T14:57:43.001Z,5.85
2022-09-14T15:00:19.153Z,5.80
2022-09-14T15:02:46.442Z,5.97
2022-09-14T15:05:13.731Z,5.30
2022-09-14T15:07:40.966Z,6.22
2022-09-14T15:10:08.800Z,5.53
2022-09-14T15:12:35.749Z,5.40
2022-09-14T15:15:02.907Z,5.88
2022-09-14T15:17:29.698Z,5.65
2022-09-14T15:19:57.307Z,5.43
2022-09-14T15:22:24.207Z,4.05
2022-09-14T15:24:51.014Z,5.25
2022-09-14T15:27:17.884Z,5.38
2022-09-14T15:29:44.688Z,6.60
2022-09-14T15:32:11.783Z,6.32
2022-09-14T15:34:39.758Z,4.93
2022-09-14T15:37:06.710Z,8.05
2022-09-14T15:39:34.073Z,7.65
2022-09-14T15:42:01.012Z,6.72
2022-09-14T15:44:28.064Z,7.00
2022-09-14T15:46:56.439Z,6.50
2022-09-14T15:49:25.024Z,9.20
2022-09-14T15:51:54.372Z,9.30
2022-09-14T15:54:25.497Z,9.93
2022-09-14T15:56:54.890Z,9.95
2022-09-14T15:59:22.551Z,10.57
2022-09-14T16:01:49.407Z,10.23
2022-09-14T16:04:16.583Z,7.70
2022-09-14T16:06:43.826Z,8.90
2022-09-14T16:09:11.898Z,10.13
2022-09-14T16:11:39.775Z,8.57
2022-09-14T16:14:08.488Z,8.52
2022-09-14T16:16:36.545Z,8.18
2022-09-14T16:19:21.695Z,8.20
2022-09-14T16:21:52.941Z,7.43
2022-09-14T16:24:21.834Z,7.45
2022-09-14T16:26:48.644Z,7.68
2022-09-14T16:29:17.503Z,7.75
2022-09-14T16:31:47.000Z,7.07
2022-09-14T16:34:34.440Z,5.97
2022-09-14T16:37:01.289Z,6.60
2022-09-14T16:39:31.927Z,6.60
2022-09-14T16:41:59.978Z,5.22
2022-09-14T16:44:28.352Z,4.22
2022-09-14T16:46:57.879Z,4.05
2022-09-14T16:49:27.827Z,3.83
2022-09-14T16:51:56.134Z,4.05
2022-09-14T16:54:24.489Z,3.92
2022-09-14T16:56:51.764Z,3.30
2022-09-14T16:59:20.770Z,3.20
2022-09-14T17:01:53.529Z,3.30
2022-09-14T17:04:22.153Z,3.28
2022-09-14T17:06:50.637Z,3.35
2022-09-14T17:09:23.442Z,3.10
2022-09-14T17:11:50.548Z,2.70
2022-09-14T17:14:20.500Z,3.40
2022-09-14T17:16:47.868Z,3.33
2022-09-14T17:19:15.421Z,3.50
2022-09-14T17:21:43.930Z,2.97
2022-09-14T17:24:11.530Z,3.20
2022-09-14T17:26:38.778Z,3.47
2022-09-14T17:29:06.873Z,2.95
2022-09-14T17:31:37.103Z,3.20
2022-09-14T17:34:06.101Z,2.67
2022-09-14T17:36:33.340Z,2.95
2022-09-14T17:39:09.233Z,2.70
2022-09-14T17:41:39.167Z,3.05
2022-09-14T17:44:07.430Z,2.95
2022-09-14T17:46:35.339Z,2.80
2022-09-14T17:49:04.859Z,2.90
2022-09-14T17:51:32.967Z,2.92
2022-09-14T17:54:01.332Z,3.13
2022-09-14T17:56:29.934Z,3.00
2022-09-14T17:59:12.474Z,2.47
2022-09-14T18:01:40.667Z,2.90
2022-09-14T18:04:14.324Z,2.95
2022-09-14T18:06:43.789Z,3.30
2022-09-14T18:09:20.089Z,2.38
2022-09-14T18:11:47.847Z,2.67
2022-09-14T18:14:15.281Z,2.72
2022-09-14T18:16:43.313Z,2.83
2022-09-14T18:19:10.813Z,2.67
2022-09-14T18:21:39.000Z,3.10
2022-09-14T18:24:06.517Z,2.53
2022-09-14T18:26:33.642Z,3.05
2022-09-14T18:29:00.499Z,2.90
2022-09-14T18:31:28.152Z,2.92
2022-09-14T18:33:59.397Z,2.47
2022-09-14T18:36:29.181Z,2.88
2022-09-14T18:38:56.555Z,2.95
2022-09-14T18:41:23.473Z,2.75
2022-09-14T18:43:52.093Z,2.88
2022-09-14T18:46:19.548Z,2.65
2022-09-14T18:48:50.147Z,3.03
2022-09-14T18:51:17.133Z,3.30
2022-09-14T18:53:44.140Z,2.75
2022-09-14T18:56:13.464Z,3.42
2022-09-14T18:58:44.913Z,3.40
2022-09-14T19:01:14.070Z,2.97
2022-09-14T19:03:42.825Z,3.20
2022-09-14T19:06:13.119Z,3.45
2022-09-14T19:08:40.814Z,3.03
2022-09-14T19:11:13.357Z,3.30
2022-09-14T19:13:40.719Z,3.40
2022-09-14T19:16:16.391Z,3.65
2022-09-14T19:18:44.559Z,3.85
2022-09-14T19:21:16.278Z,4.20
2022-09-14T19:23:43.359Z,4.05
2022-09-14T19:26:16.535Z,3.78
2022-09-14T19:28:44.626Z,4.25
2022-09-14T19:31:13.586Z,4.45
2022-09-14T19:33:45.076Z,4.53
2022-09-14T19:36:23.325Z,3.90
2022-09-14T19:38:51.849Z,3.45
2022-09-14T19:41:19.492Z,4.72
2022-09-14T19:43:46.487Z,3.80
2022-09-14T19:46:16.280Z,4.15
2022-09-14T19:48:43.237Z,3.72
2022-09-14T19:51:15.444Z,4.35
2022-09-14T19:53:50.194Z,4.03
2022-09-14T19:56:22.659Z,4.00
2022-09-14T19:58:52.325Z,3.90
2022-09-14T20:01:21.144Z,4.20
2022-09-14T20:03:49.097Z,6.97
2022-09-14T20:06:23.509Z,4.95
2022-09-14T20:08:57.185Z,4.28
2022-09-14T20:11:26.271Z,4.65
2022-09-14T20:13:57.787Z,4.32
2022-09-14T20:16:28.224Z,5.10
2022-09-14T20:18:56.900Z,4.60
2022-09-14T20:21:25.957Z,4.53
2022-09-14T20:24:14.625Z,4.75
2022-09-14T20:26:42.865Z,4.63
2022-09-14T20:29:09.921Z,5.47
2022-09-14T20:31:36.753Z,4.43
2022-09-14T20:34:04.434Z,5.13
2022-09-14T20:36:32.441Z,4.93
2022-09-14T20:39:02.390Z,5.28
2022-09-14T20:41:33.275Z,5.80
2022-09-14T20:44:00.621Z,5.32
2022-09-14T20:46:34.847Z,5.63
2022-09-14T20:49:04.262Z,5.38
2022-09-14T20:51:31.623Z,5.70
2022-09-14T20:53:58.633Z,5.70
2022-09-14T20:56:28.550Z,4.95
2022-09-14T20:58:57.996Z,5.55
2022-09-14T21:01:27.179Z,4.82
2022-09-14T21:03:57.379Z,4.95
2022-09-14T21:06:33.766Z,6.53
2022-09-14T21:09:01.857Z,6.38
2022-09-14T21:11:29.041Z,6.75
2022-09-14T21:13:57.680Z,6.85
2022-09-14T21:16:31.420Z,6.10
2022-09-14T21:19:07.160Z,6.60
2022-09-14T21:21:37.282Z,6.72
2022-09-14T21:24:07.247Z,6.90
2022-09-14T21:26:40.533Z,5.88
2022-09-14T21:29:16.128Z,6.65
2022-09-14T21:31:43.025Z,7.18
2022-09-14T21:34:11.090Z,6.88
2022-09-14T21:36:43.391Z,7.03
2022-09-14T21:39:21.624Z,6.50
2022-09-14T21:41:55.975Z,6.07
2022-09-14T21:44:33.275Z,6.60
2022-09-14T21:47:01.693Z,6.10
2022-09-14T21:49:28.616Z,5.20
2022-09-14T21:51:55.468Z,6.07
2022-09-14T21:54:28.522Z,5.55
2022-09-14T21:56:55.502Z,6.15
2022-09-14T21:59:23.129Z,5.75
2022-09-14T22:01:50.281Z,6.50
2022-09-14T22:04:19.641Z,6.15
2022-09-14T22:06:47.165Z,6.15
2022-09-14T22:09:15.720Z,6.90
2022-09-14T22:11:42.848Z,7.15
2022-09-14T22:14:15.221Z,6.88
2022-09-14T22:16:42.482Z,6.35
2022-09-14T22:19:24.107Z,7.50
2022-09-14T22:21:51.423Z,5.82
2022-09-14T22:24:34.858Z,6.72
2022-09-14T22:27:05.168Z,6.00
2022-09-14T22:29:31.974Z,6.70
2022-09-14T22:32:00.154Z,5.75
2022-09-14T22:34:28.422Z,6.05
2022-09-14T22:36:55.194Z,5.03
2022-09-14T22:39:21.960Z,5.45
2022-09-14T22:41:49.071Z,5.18
2022-09-14T22:44:15.840Z,4.80
2022-09-14T22:46:43.236Z,5.63
2022-09-14T22:49:10.655Z,5.40
2022-09-14T22:51:37.675Z,5.88
2022-09-14T22:54:05.171Z,4.90
2022-09-14T22:56:35.373Z,5.30
2022-09-14T22:59:07.574Z,5.38
2022-09-14T23:01:38.098Z,4.85
2022-09-14T23:04:07.798Z,4.65
2022-09-14T23:06:38.193Z,4.97
2022-09-14T23:09:06.566Z,4.40
2022-09-14T23:11:33.503Z,4.72
2022-09-14T23:14:00.302Z,4.68
2022-09-14T23:16:30.164Z,4.25
2022-09-14T23:19:02.190Z,4.60
2022-09-14T23:21:31.050Z,4.35
2022-09-14T23:24:00.283Z,4.25
2022-09-14T23:26:27.749Z,5.00
2022-09-14T23:29:11.526Z,4.50
2022-09-14T23:31:38.284Z,4.93
2022-09-14T23:34:05.739Z,4.93
2022-09-14T23:36:33.216Z,4.93
2022-09-14T23:39:00.217Z,4.78
2022-09-14T23:41:28.213Z,4.20
2022-09-14T23:43:55.297Z,3.85
2022-09-14T23:46:22.988Z,4.88
2022-09-14T23:48:50.303Z,4.03
2022-09-14T23:51:17.695Z,4.13
2022-09-14T23:53:44.809Z,4.53
2022-09-14T23:56:12.141Z,4.85
2022-09-14T23:58:39.834Z,4.43
